Danny C — WBE8593 — position and weather

sailwx.info

Track history (hours):
 
Tides and Currents Weather Stations Pressure Air Temp Water Temp Dewpoint Dewpoint Depression Visibility Wind Speed Wind Dir Waves Ship Positions

Danny C

Owner: CASTAGNOLA, ANGELO B, SANTA BARBARA, CA. More information available from US FCC via Universal Licensing System and Coast Guard Vessel Documentation Center.

Last reported at 2017-Oct-30 21:02 UTC. Time now 2017-Nov-19 14:21 UTC.
Position N 34°14' W 119°16'.
Warning: this ship's position is 19 days out of date.

Length 26 m.

MMSI: 338031982.

Date/timePositionNaut miles runAvg speedWind from/ knotsBaromVisibWave heightAir tempDewpointWater temp
2017-Oct-30 21:02N 34°14' W 119°16'0 0.2
2017-Oct-30 21:00N 34°14' W 119°16'3 6.1
2017-Oct-30 20:29N 34°16' W 119°19'5 9.4
2017-Oct-30 19:54N 34°18' W 119°25'5 9.1
2017-Oct-30 19:20N 34°20' W 119°31'3 9.0
2017-Oct-30 18:57N 34°22' W 119°35'4 8.9
2017-Oct-30 18:28N 34°24' W 119°39'2 4.0
2017-Oct-30 17:58N 34°24' W 119°42'1 2.2
2017-Oct-30 17:27N 34°25' W 119°40'0 0.0
2017-Oct-30 16:57N 34°25' W 119°40'1 2.4
2017-Oct-30 16:30N 34°24' W 119°42'0 0.0
2017-Oct-30 16:00N 34°24' W 119°42'1 1.1
2017-Oct-30 15:29N 34°25' W 119°41'0 0.2
2017-Oct-30 14:57N 34°25' W 119°41'0 0.1
2017-Oct-30 14:28N 34°25' W 119°41'0 0.0
2017-Oct-29 08:28N 34°24' W 119°42'2 3.9
2017-Oct-29 08:01N 34°23' W 119°40'5 8.5
2017-Oct-29 07:29N 34°20' W 119°36'4 8.5
2017-Oct-29 07:00N 34°18' W 119°32'4 8.5
2017-Oct-29 06:30N 34°15' W 119°28'4 8.4
2017-Oct-29 06:00N 34°13' W 119°24'4 8.5
2017-Oct-29 05:30N 34°10' W 119°19'4 8.5
2017-Oct-29 04:59N 34°08' W 119°15'4 8.6
2017-Oct-29 04:30N 34°05' W 119°11'4 8.5
2017-Oct-29 04:00N 34°03' W 119°07'46 1.7
2017-Oct-28 00:50N 33°44' W 118°16'2 5.3
2017-Oct-28 00:30N 33°43' W 118°15'6 8.1
2017-Oct-27 23:47N 33°41' W 118°08'2 8.2
2017-Oct-27 23:30N 33°41' W 118°05'2 4.9
2017-Oct-27 23:00N 33°40' W 118°02'0 0.6
2017-Oct-27 22:30N 33°40' W 118°02'0 0.0
2017-Oct-27 21:57N 33°40' W 118°02'0 0.1
2017-Oct-27 21:30N 33°40' W 118°02'0 0.0
2017-Oct-27 21:00N 33°40' W 118°02'0 0.0
2017-Oct-27 20:30N 33°40' W 118°02'0 0.0
2017-Oct-27 20:00N 33°40' W 118°02'0 0.0
2017-Oct-27 19:30N 33°40' W 118°02'0 0.0
2017-Oct-27 19:00N 33°40' W 118°02'3 0.6
2017-Oct-27 14:24N 33°41' W 118°06'3 8.1
2017-Oct-27 14:00N 33°41' W 118°09'4 8.1
2017-Oct-27 13:30N 33°42' W 118°14'2 4.8
2017-Oct-27 13:00N 33°44' W 118°16'0 0.0
2017-Oct-27 01:27N 33°44' W 118°16'3 5.5
2017-Oct-27 00:56N 33°42' W 118°13'4 9.4
2017-Oct-27 00:29N 33°41' W 118°08'4 9.0
2017-Oct-27 00:00N 33°40' W 118°03'1 1.9
2017-Oct-26 23:30N 33°40' W 118°02'0 0.0
2017-Oct-26 23:00N 33°40' W 118°02'0 0.0
2017-Oct-26 22:30N 33°40' W 118°02'0 0.0
2017-Oct-26 22:00N 33°40' W 118°02'0 0.0
2017-Oct-26 21:28N 33°40' W 118°02'0 0.0
2017-Oct-26 19:50N 33°40' W 118°02'0 0.0
2017-Oct-26 19:14N 33°40' W 118°02'0 0.0
2017-Oct-26 19:00N 33°40' W 118°02'2 0.5
2017-Oct-26 14:27N 33°41' W 118°05'4 8.1
2017-Oct-26 14:00N 33°41' W 118°09'4 8.0
2017-Oct-26 13:29N 33°42' W 118°14'2 5.0
2017-Oct-26 13:00N 33°44' W 118°16'0 0.0
2017-Oct-26 02:00N 33°44' W 118°16'0 0.3
2017-Oct-26 01:30N 33°44' W 118°16'0 0.0
2017-Oct-26 01:00N 33°44' W 118°16'0 0.0
2017-Oct-26 00:30N 33°44' W 118°16'2 3.9
2017-Oct-25 23:59N 33°43' W 118°15'4 8.3
2017-Oct-25 23:30N 33°42' W 118°10'6 0.7
2017-Oct-25 14:43N 33°40' W 118°03'2 8.3
2017-Oct-25 14:28N 33°41' W 118°05'4 8.5
2017-Oct-25 14:00N 33°42' W 118°10'4 8.3
2017-Oct-25 13:30N 33°42' W 118°15'2 0.2
2017-Oct-25 02:12N 33°44' W 118°16'1 3.1
2017-Oct-25 01:59N 33°43' W 118°16'0 0.6
2017-Oct-25 01:30N 33°44' W 118°16'1 1.2
2017-Oct-25 01:00N 33°44' W 118°16'4 7.2
2017-Oct-25 00:30N 33°42' W 118°12'9 1.1
2017-Oct-24 16:44N 33°40' W 118°03'5 3.9
2017-Oct-24 15:29N 33°41' W 118°08'4 8.6
2017-Oct-24 15:00N 33°42' W 118°13'3 6.9
2017-Oct-24 14:30N 33°44' W 118°16'0 0.0
2017-Oct-24 14:00N 33°44' W 118°16'0 0.0
2017-Oct-24 13:26N 33°44' W 118°16'0 0.0
2017-Oct-24 12:54N 33°44' W 118°16'0 0.0
2017-Oct-24 02:57N 33°44' W 118°16'12 1.6
2017-Oct-23 19:21N 33°40' W 118°03'0 0.3
2017-Oct-23 19:00N 33°40' W 118°03'0 0.1
2017-Oct-23 18:30N 33°40' W 118°03'0 0.0
2017-Oct-23 18:00N 33°40' W 118°03'0 0.0
2017-Oct-23 17:30N 33°40' W 118°03'0 0.0
2017-Oct-23 17:00N 33°40' W 118°03'0 0.0
2017-Oct-23 16:29N 33°40' W 118°03'0 0.1
2017-Oct-23 15:53N 33°40' W 118°03'0 0.0
2017-Oct-23 15:26N 33°40' W 118°03'7 4.5
2017-Oct-23 13:49N 33°42' W 118°11'  
Track history (hours):
 
Tides and Currents Weather Stations Pressure Air Temp Water Temp Dewpoint Dewpoint Depression Visibility Wind Speed Wind Dir Waves Ship Positions

Danny C

Owner: CASTAGNOLA, ANGELO B, SANTA BARBARA, CA. More information available from US FCC via Universal Licensing System and Coast Guard Vessel Documentation Center.

Last reported at 2017-Oct-30 21:02 UTC. Time now 2017-Nov-19 14:21 UTC.
Position N 34°14' W 119°16'.
Warning: this ship's position is 19 days out of date.

Length 26 m.

MMSI: 338031982.

Date/timePositionNaut miles runAvg speedWind from/ knotsBaromVisibWave heightAir tempDewpointWater temp
2017-Oct-30 21:02N 34°14' W 119°16'0 0.2
2017-Oct-30 21:00N 34°14' W 119°16'3 6.1
2017-Oct-30 20:29N 34°16' W 119°19'5 9.4
2017-Oct-30 19:54N 34°18' W 119°25'5 9.1
2017-Oct-30 19:20N 34°20' W 119°31'3 9.0
2017-Oct-30 18:57N 34°22' W 119°35'4 8.9
2017-Oct-30 18:28N 34°24' W 119°39'2 4.0
2017-Oct-30 17:58N 34°24' W 119°42'1 2.2
2017-Oct-30 17:27N 34°25' W 119°40'0 0.0
2017-Oct-30 16:57N 34°25' W 119°40'1 2.4
2017-Oct-30 16:30N 34°24' W 119°42'0 0.0
2017-Oct-30 16:00N 34°24' W 119°42'1 1.1
2017-Oct-30 15:29N 34°25' W 119°41'0 0.2
2017-Oct-30 14:57N 34°25' W 119°41'0 0.1
2017-Oct-30 14:28N 34°25' W 119°41'0 0.0
2017-Oct-29 08:28N 34°24' W 119°42'2 3.9
2017-Oct-29 08:01N 34°23' W 119°40'5 8.5
2017-Oct-29 07:29N 34°20' W 119°36'4 8.5
2017-Oct-29 07:00N 34°18' W 119°32'4 8.5
2017-Oct-29 06:30N 34°15' W 119°28'4 8.4
2017-Oct-29 06:00N 34°13' W 119°24'4 8.5
2017-Oct-29 05:30N 34°10' W 119°19'4 8.5
2017-Oct-29 04:59N 34°08' W 119°15'4 8.6
2017-Oct-29 04:30N 34°05' W 119°11'4 8.5
2017-Oct-29 04:00N 34°03' W 119°07'46 1.7
2017-Oct-28 00:50N 33°44' W 118°16'2 5.3
2017-Oct-28 00:30N 33°43' W 118°15'6 8.1
2017-Oct-27 23:47N 33°41' W 118°08'2 8.2
2017-Oct-27 23:30N 33°41' W 118°05'2 4.9
2017-Oct-27 23:00N 33°40' W 118°02'0 0.6
2017-Oct-27 22:30N 33°40' W 118°02'0 0.0
2017-Oct-27 21:57N 33°40' W 118°02'0 0.1
2017-Oct-27 21:30N 33°40' W 118°02'0 0.0
2017-Oct-27 21:00N 33°40' W 118°02'0 0.0
2017-Oct-27 20:30N 33°40' W 118°02'0 0.0
2017-Oct-27 20:00N 33°40' W 118°02'0 0.0
2017-Oct-27 19:30N 33°40' W 118°02'0 0.0
2017-Oct-27 19:00N 33°40' W 118°02'3 0.6
2017-Oct-27 14:24N 33°41' W 118°06'3 8.1
2017-Oct-27 14:00N 33°41' W 118°09'4 8.1
2017-Oct-27 13:30N 33°42' W 118°14'2 4.8
2017-Oct-27 13:00N 33°44' W 118°16'0 0.0
2017-Oct-27 01:27N 33°44' W 118°16'3 5.5
2017-Oct-27 00:56N 33°42' W 118°13'4 9.4
2017-Oct-27 00:29N 33°41' W 118°08'4 9.0
2017-Oct-27 00:00N 33°40' W 118°03'1 1.9
2017-Oct-26 23:30N 33°40' W 118°02'0 0.0
2017-Oct-26 23:00N 33°40' W 118°02'0 0.0
2017-Oct-26 22:30N 33°40' W 118°02'0 0.0
2017-Oct-26 22:00N 33°40' W 118°02'0 0.0
2017-Oct-26 21:28N 33°40' W 118°02'0 0.0
2017-Oct-26 19:50N 33°40' W 118°02'0 0.0
2017-Oct-26 19:14N 33°40' W 118°02'0 0.0
2017-Oct-26 19:00N 33°40' W 118°02'2 0.5
2017-Oct-26 14:27N 33°41' W 118°05'4 8.1
2017-Oct-26 14:00N 33°41' W 118°09'4 8.0
2017-Oct-26 13:29N 33°42' W 118°14'2 5.0
2017-Oct-26 13:00N 33°44' W 118°16'0 0.0
2017-Oct-26 02:00N 33°44' W 118°16'0 0.3
2017-Oct-26 01:30N 33°44' W 118°16'0 0.0
2017-Oct-26 01:00N 33°44' W 118°16'0 0.0
2017-Oct-26 00:30N 33°44' W 118°16'2 3.9
2017-Oct-25 23:59N 33°43' W 118°15'4 8.3
2017-Oct-25 23:30N 33°42' W 118°10'6 0.7
2017-Oct-25 14:43N 33°40' W 118°03'2 8.3
2017-Oct-25 14:28N 33°41' W 118°05'4 8.5
2017-Oct-25 14:00N 33°42' W 118°10'4 8.3
2017-Oct-25 13:30N 33°42' W 118°15'2 0.2
2017-Oct-25 02:12N 33°44' W 118°16'1 3.1
2017-Oct-25 01:59N 33°43' W 118°16'0 0.6
2017-Oct-25 01:30N 33°44' W 118°16'1 1.2
2017-Oct-25 01:00N 33°44' W 118°16'4 7.2
2017-Oct-25 00:30N 33°42' W 118°12'9 1.1
2017-Oct-24 16:44N 33°40' W 118°03'5 3.9
2017-Oct-24 15:29N 33°41' W 118°08'4 8.6
2017-Oct-24 15:00N 33°42' W 118°13'3 6.9
2017-Oct-24 14:30N 33°44' W 118°16'0 0.0
2017-Oct-24 14:00N 33°44' W 118°16'0 0.0
2017-Oct-24 13:26N 33°44' W 118°16'0 0.0
2017-Oct-24 12:54N 33°44' W 118°16'0 0.0
2017-Oct-24 02:57N 33°44' W 118°16'12 1.6
2017-Oct-23 19:21N 33°40' W 118°03'0 0.3
2017-Oct-23 19:00N 33°40' W 118°03'0 0.1
2017-Oct-23 18:30N 33°40' W 118°03'0 0.0
2017-Oct-23 18:00N 33°40' W 118°03'0 0.0
2017-Oct-23 17:30N 33°40' W 118°03'0 0.0
2017-Oct-23 17:00N 33°40' W 118°03'0 0.0
2017-Oct-23 16:29N 33°40' W 118°03'0 0.1
2017-Oct-23 15:53N 33°40' W 118°03'0 0.0
2017-Oct-23 15:26N 33°40' W 118°03'7 4.5
2017-Oct-23 13:49N 33°42' W 118°11'  

Dump ship's entire track history